• Join FlightAware (Why Join?)
  • Login
  • US Flag 
01:01AM EDT


 

Airport Tracker/Info


-or-


 

Live Flight TrackerFlight Track Log ✈ N114EL ✈ 01-Jun-2014 ✈ KAIZ - LL10

Flight Track Log - Related Links

Times and Time Zones

All times are in EDT time to prevent confusion due to time zone crossing. See the N114EL flight status page for this flight to view local times or setup timezone preferences in your user account.

Time Position Orientation Groundspeed Altitude Reporting Facility
EDT Latitude Longitude Course Direction KTS MPH feet Rate Location/Type
01:12PM 38.1233 -92.4486 42° Northeast 132 152 3,100  Level Kansas City Center
01:13PM 38.1250 -92.4411 74° East 133 153 3,100 480 Level Kansas City Center
01:14PM 38.1381 -92.4028 67° East 125 144 3,800 480 Climbing Kansas City Center
01:15PM 38.1719 -92.3675 39° Northeast 132 152 4,100 240 Climbing Kansas City Center
01:16PM 38.2072 -92.3372 34° Northeast 144 166 4,400 600 Climbing Kansas City Center
01:16PM 38.2244 -92.3228 33° Northeast 118 136 5,100 660 Climbing Kansas City Center
01:17PM 38.2817 -92.3350 38° Northeast  Level FlightAware Approximate
01:17PM 38.2369 -92.3172 19° North 133 153 5,100  Level Kansas City Center
01:18PM 38.3140 -92.3007 42° Northeast  Level FlightAware Approximate
01:18PM 38.2686 -92.2872 37° Northeast 135 155 5,100  Level Kansas City Center
01:19PM 38.3031 -92.2492 41° Northeast 152 175 5,000 -60 Descending Kansas City Center
01:20PM 38.3392 -92.2142 37° Northeast 158 182 5,000 180 Level Kansas City Center
01:21PM 38.3711 -92.1806 40° Northeast 155 178 5,400 480 Climbing Kansas City Center
01:21PM 38.3808 -92.1653 51° Northeast 138 159 5,700 540 Climbing Kansas City Center
01:22PM 38.4006 -92.1378 48° Northeast 137 158 6,000 360 Climbing Kansas City Center
01:23PM 38.4186 -92.1019 57° Northeast 126 145 6,400 240 Climbing Kansas City Center
01:24PM 38.4381 -92.0606 59° Northeast 133 153 6,600 300 Climbing Kansas City Center
01:25PM 38.4736 -92.0403 24° Northeast 139 160 7,100 240 Climbing Kansas City Center
01:26PM 38.5067 -92.0117 34° Northeast 141 162 7,200 -60 Climbing Kansas City Center
01:27PM 38.5433 -91.9794 34° Northeast 152 175 7,000 -120 Descending Kansas City Center
01:28PM 38.5758 -91.9406 43° Northeast 158 182 7,000  Level Kansas City Center
01:29PM 38.6089 -91.8892 51° Northeast 155 178 7,100  Climbing Kansas City Center
01:30PM 38.6397 -91.8481 46° Northeast 158 182 7,100  Level Kansas City Center
01:31PM 38.6689 -91.8072 48° Northeast 157 181 7,100  Level Kansas City Center
01:32PM 38.7000 -91.7669 45° Northeast 157 181 7,100  Level Kansas City Center
01:33PM 38.7236 -91.7481 32° Northeast 163 188 7,100  Level Kansas City Center
01:33PM 38.7383 -91.7347 35° Northeast 158 182 7,100  Level Kansas City Center
01:34PM 38.7775 -91.7061 30° Northeast 159 183 7,100 -60 Level Kansas City Center
01:36PM 38.8175 -91.6756 31° Northeast 162 186 7,000  Descending Kansas City Center
01:36PM 38.8642 -91.6369 33° Northeast 161 185 7,100  Climbing Kansas City Center
01:38PM 38.9017 -91.6072 32° Northeast 162 186 7,100  Level Kansas City Center
01:39PM 38.9411 -91.5772 31° Northeast 162 186 7,100  Level Kansas City Center
01:40PM 38.9811 -91.5481 30° Northeast 162 186 7,100  Level Kansas City Center
01:41PM 39.0189 -91.5186 31° Northeast 163 188 7,200 240 Climbing Kansas City Center
01:42PM 39.0589 -91.5022 18° North 161 185 7,700 480 Climbing Kansas City Center
01:43PM 39.1006 -91.4881 15° North 142 163 8,300 480 Climbing Kansas City Center
01:44PM 39.1344 -91.4761 15° North 134 154 8,800 300 Climbing Kansas City Center
01:45PM 39.1689 -91.4647 14° North 132 152 9,000 120 Climbing Kansas City Center
01:46PM 39.2078 -91.4492 17° North 133 153 9,100  Climbing Kansas City Center
01:47PM 39.2478 -91.4283 22° Northeast 144 166 9,000  Descending Kansas City Center
01:48PM 39.2883 -91.4047 24° Northeast 151 174 9,100  Climbing Kansas City Center
01:49PM 39.3364 -91.3775 24° Northeast 153 176 9,100  Level Kansas City Center
01:50PM 39.3761 -91.3547 24° Northeast 154 177 9,100  Level Kansas City Center
01:51PM 39.4169 -91.3322 23° Northeast 154 177 9,100 -60 Level Kansas City Center
01:52PM 39.4619 -91.3206 11° North 162 186 9,000  Descending Kansas City Center
01:53PM 39.5039 -91.3047 16° North 163 188 9,100  Climbing Kansas City Center
01:54PM 39.5467 -91.2914 14° North 161 185 9,100  Level Kansas City Center
01:55PM 39.5972 -91.2744 14° North 160 184 9,100  Level Kansas City Center
01:56PM 39.6406 -91.2578 16° North 160 184 9,100  Level Kansas City Center
01:57PM 39.6825 -91.2369 21° North 160 184 9,100  Level Kansas City Center
01:58PM 39.7247 -91.2197 17° North 160 184 9,100  Level Kansas City Center
01:59PM 39.7661 -91.1944 25° Northeast 160 184 9,200  Climbing Kansas City Center
02:00PM 39.8053 -91.1728 23° Northeast 160 184 9,200  Level Kansas City Center
02:01PM 39.8547 -91.1472 22° Northeast 160 184 9,300 -120 Climbing Kansas City Center
02:02PM 39.8947 -91.1242 24° Northeast 160 184 9,000 -180 Descending Kansas City Center
02:03PM 39.9383 -91.1006 23° Northeast 163 188 9,000 -60 Level Kansas City Center
02:04PM 39.9803 -91.0742 26° Northeast 167 192 8,900  Descending Kansas City Center
02:05PM 40.0261 -91.0486 23° Northeast 156 180 9,000  Climbing Kansas City Center
02:07PM 40.0683 -91.0264 22° Northeast 157 181 9,000  Level Kansas City Center
02:08PM 40.1083 -91.0053 22° Northeast 158 182 9,100  Climbing Kansas City Center
02:09PM 40.1497 -90.9836 22° Northeast 158 182 9,100  Level Kansas City Center
02:10PM 40.1914 -90.9636 20° North 159 183 9,100 -60 Level Kansas City Center
02:11PM 40.2389 -90.9389 22° Northeast 159 183 9,000  Descending Kansas City Center
02:12PM 40.2756 -90.9056 35° Northeast 159 183 9,100  Climbing Kansas City Center
02:13PM 40.3122 -90.8728 34° Northeast 159 183 9,100  Level Kansas City Center
02:14PM 40.3503 -90.8406 33° Northeast 159 183 9,100 -60 Level Kansas City Center
02:15PM 40.4025 -90.7958 33° Northeast 161 185 9,000  Descending Chicago Center
02:16PM 40.4375 -90.7647 34° Northeast 157 181 9,100 180 Climbing Chicago Center
02:17PM 40.4725 -90.7344 33° Northeast 155 178 9,400  Climbing Chicago Center
02:18PM 40.4917 -90.6806 65° Northeast 165 190 9,100 -180 Descending Chicago Center
02:19PM 40.5278 -90.6475 35° Northeast 160 184 9,100 -60 Level Chicago Center
02:20PM 40.5686 -90.6153 31° Northeast 165 190 9,000 -60 Descending Chicago Center
02:21PM 40.6114 -90.5739 36° Northeast 164 189 9,000  Level Chicago Center
02:22PM 40.6475 -90.5414 34° Northeast 161 185 9,000  Level Chicago Center
02:23PM 40.6750 -90.4950 52° Northeast 161 185 9,000  Level Chicago Center
02:24PM 40.6897 -90.4408 70° East 160 184 9,000  Level Chicago Center
02:27PM 40.7581 -90.3031 60° Northeast 160 184 9,100  Climbing Kansas City Center
02:28PM 40.7772 -90.2508 64° Northeast 159 183 9,100  Level Kansas City Center
02:29PM 40.7969 -90.1994 63° Northeast 159 183 9,100  Level Kansas City Center
02:30PM 40.8211 -90.1383 62° Northeast 159 183 9,100  Level Kansas City Center
02:31PM 40.8425 -90.0858 62° Northeast 159 183 9,100  Level Kansas City Center
02:33PM 40.8675 -90.0250 61° Northeast 158 182 9,100  Level Chicago Center
02:34PM 40.8892 -89.9736 61° Northeast 158 182 9,100  Level Chicago Center
02:35PM 40.9108 -89.9219 61° Northeast 158 182 9,100  Level Chicago Center
02:36PM 40.9331 -89.8603 64° Northeast 158 182 9,100  Level Chicago Center
02:37PM 40.9489 -89.8058 69° East 158 182 9,100  Level Chicago Center
02:38PM 40.9725 -89.7567 58° Northeast 157 181 9,100  Level Chicago Center
02:39PM 40.9961 -89.7081 57° Northeast 157 181 9,100  Level Chicago Center
02:40PM 41.0175 -89.6567 61° Northeast 157 181 9,100  Level Chicago Center
02:41PM 41.0389 -89.6044 61° Northeast 158 182 9,100  Level Chicago Center
02:42PM 41.0597 -89.5544 61° Northeast 158 182 9,100  Level Chicago Center
02:43PM 41.0936 -89.5019 49° Northeast 157 181 9,100 -60 Level Chicago Center
02:44PM 41.1289 -89.4633 39° Northeast 160 184 9,000  Descending Chicago Center
02:45PM 41.1611 -89.4211 45° Northeast 164 189 9,100  Climbing Chicago Center
02:46PM 41.1942 -89.3831 41° Northeast 161 185 9,100 -60 Level Chicago Center
02:47PM 41.2250 -89.3394 47° Northeast 161 185 9,000 -60 Descending Chicago Center
02:48PM 41.2558 -89.2956 47° Northeast 161 185 9,000 -60 Level Chicago Center
02:49PM 41.2881 -89.2533 45° Northeast 161 185 8,900 -480 Descending Chicago Center
02:50PM 41.3278 -89.1933 49° Northeast 176 203 8,100 -780 Descending Chicago Center
02:51PM 41.3606 -89.1483 46° Northeast 177 204 7,400 -720 Descending Chicago Center
02:52PM 41.3933 -89.0986 49° Northeast 177 204 6,700 -660 Descending Chicago Center
02:53PM 41.4214 -89.0467 54° Northeast 177 204 6,100 -720 Descending Chicago Center
02:54PM 41.4497 -88.9828 59° Northeast 169 194 5,300 -600 Descending Chicago Center
02:55PM 41.4689 -88.9258 66° East 169 194 4,900 -180 Descending Chicago Center
02:56PM 41.4875 -88.8767 63° Northeast 156 180 5,000  Climbing Chicago Center
02:57PM 41.5078 -88.8225 63° Northeast 154 177 4,900  Descending Chicago Center
02:58PM 41.5244 -88.7692 67° East 154 177 5,000 60 Climbing Chicago Center
02:59PM 41.5439 -88.7136 65° Northeast 153 176 5,100  Climbing Chicago Center
03:00PM 41.5619 -88.6603 66° East 155 178 5,100 -120 Level Chicago Center
03:02PM 41.5814 -88.6064 64° Northeast 153 176 4,900 -300 Descending Chicago Center
03:03PM 41.5981 -88.5553 66° East 148 170 4,600 -540 Descending Chicago Center
03:04PM 41.6167 -88.4967 67° East 157 181 3,800 -780 Descending Chicago Center
03:05PM 41.6350 -88.4475 63° Northeast 153 176 3,100 -420 Descending Chicago Center
03:06PM 41.6508 -88.4011 65° Northeast 141 162 3,000  Descending Chicago Center
03:07PM 41.6667 -88.3583 64° Northeast 140 161 3,100 60 Climbing Chicago Center
03:09PM 41.7043 -88.2689 61° Northeast  Level FlightAware Approximate
03:16PM 41.7333 -88.2000 62° Northeast  Level FlightAware Approximate
03:17PM 41.7347 -88.2034 North  Level Estimated